Time;durP1;ratioP1;P1;durP2;ratioP2;P2;SDS_P1;SDS_P2;PMS_P1;PMS_P2;Temp;Humidity;BMP_temperature;BMP_pressure;BME280_temperature;BME280_humidity;BME280_pressure;Samples;Min_cycle;Max_cycle;Signal;HPM_P1;HPM_P2
2021/12/26 00:00:31;;;;;;;13.90;6.57;;;;;;;-0.18;100.00;100696.41;5181584;28;20022;-72
2021/12/26 00:03:01;;;;;;;16.35;6.85;;;;;;;-0.20;100.00;100698.31;5181401;28;20046;-72
2021/12/26 00:05:32;;;;;;;14.40;6.38;;;;;;;-0.15;100.00;100700.59;5180865;28;20025;-71
2021/12/26 00:08:03;;;;;;;18.17;7.60;;;;;;;-0.16;100.00;100712.94;5181353;28;20112;-72
2021/12/26 00:10:33;;;;;;;13.70;6.15;;;;;;;-0.17;100.00;100702.50;5164094;28;20037;-72
2021/12/26 00:13:04;;;;;;;18.10;6.72;;;;;;;-0.18;100.00;100706.94;5181468;28;20562;-72
2021/12/26 00:15:34;;;;;;;14.13;6.70;;;;;;;-0.17;100.00;100695.44;5180604;28;20041;-71
2021/12/26 00:18:05;;;;;;;14.55;6.65;;;;;;;-0.17;100.00;100697.22;5179312;28;20032;-72
2021/12/26 00:20:37;;;;;;;16.40;6.70;;;;;;;-0.18;100.00;100693.75;5181144;28;20171;-72
2021/12/26 00:23:08;;;;;;;13.98;7.10;;;;;;;-0.21;100.00;100688.69;5181205;28;20018;-72
2021/12/26 00:25:38;;;;;;;18.92;6.47;;;;;;;-0.21;100.00;100687.84;5180839;28;20032;-72
2021/12/26 00:28:09;;;;;;;17.20;7.43;;;;;;;-0.21;100.00;100682.56;5181177;28;20026;-72
2021/12/26 00:30:40;;;;;;;19.02;7.93;;;;;;;-0.20;100.00;100673.69;5181268;28;20041;-72
2021/12/26 00:33:11;;;;;;;15.02;7.07;;;;;;;-0.20;100.00;100671.06;5181046;28;20026;-71
2021/12/26 00:35:41;;;;;;;15.82;7.15;;;;;;;-0.23;100.00;100664.22;5163466;28;20033;-74
2021/12/26 00:38:13;;;;;;;18.55;7.72;;;;;;;-0.22;100.00;100678.25;5163253;28;20076;-74
2021/12/26 00:40:44;;;;;;;14.70;7.40;;;;;;;-0.24;100.00;100670.44;5180618;28;20041;-72
2021/12/26 00:43:14;;;;;;;18.88;7.25;;;;;;;-0.21;100.00;100679.91;5180212;28;20405;-72
2021/12/26 00:45:45;;;;;;;19.23;7.55;;;;;;;-0.18;100.00;100674.47;5181037;28;20076;-72
2021/12/26 00:48:16;;;;;;;16.20;8.00;;;;;;;-0.16;100.00;100678.66;5173698;28;20104;-72
2021/12/26 00:50:46;;;;;;;17.75;7.40;;;;;;;-0.18;100.00;100680.56;5180337;28;20037;-72
2021/12/26 00:53:17;;;;;;;18.73;6.35;;;;;;;-0.21;100.00;100679.91;5180198;28;20033;-70
2021/12/26 00:55:48;;;;;;;16.52;7.35;;;;;;;-0.21;100.00;100679.91;5180175;28;20106;-72
2021/12/26 00:58:18;;;;;;;15.48;7.75;;;;;;;-0.18;100.00;100667.38;5180485;28;20026;-72
2021/12/26 01:00:50;;;;;;;19.13;7.70;;;;;;;-0.17;100.00;100662.97;5180402;28;20025;-72
2021/12/26 01:03:23;;;;;;;17.27;8.15;;;;;;;-0.17;100.00;100668.22;5180052;28;20025;-72
2021/12/26 01:05:56;;;;;;;15.32;7.78;;;;;;;-0.18;100.00;100663.91;5162304;28;20109;-70
2021/12/26 01:08:30;;;;;;;20.33;8.75;;;;;;;-0.19;100.00;100665.72;5180505;28;20442;-72
2021/12/26 01:11:06;;;;;;;20.20;8.77;;;;;;;-0.22;100.00;100671.16;5180210;28;20029;-71
2021/12/26 01:13:38;;;;;;;22.83;8.45;;;;;;;-0.21;100.00;100669.38;5163124;28;20030;-71
2021/12/26 01:16:11;;;;;;;19.02;8.75;;;;;;;-0.19;100.00;100662.22;5179904;28;20069;-69
2021/12/26 01:18:50;;;;;;;20.75;8.98;;;;;;;-0.20;100.00;100668.41;5174608;28;20081;-71
2021/12/26 01:21:25;;;;;;;20.25;8.82;;;;;;;-0.15;100.00;100661.94;5162101;28;20115;-71
2021/12/26 01:24:00;;;;;;;18.27;7.70;;;;;;;-0.14;100.00;100670.69;5180291;28;20028;-72
2021/12/26 01:26:30;;;;;;;19.65;7.95;;;;;;;-0.16;100.00;100662.00;5179860;28;20040;-71
2021/12/26 01:29:03;;;;;;;20.73;8.23;;;;;;;-0.17;100.00;100657.69;5179667;28;20021;-71
2021/12/26 01:31:34;;;;;;;21.75;8.05;;;;;;;-0.16;100.00;100656.72;5162594;28;20406;-72
2021/12/26 01:34:07;;;;;;;21.52;8.43;;;;;;;-0.17;100.00;100661.16;5180007;28;20030;-70
2021/12/26 01:36:38;;;;;;;18.42;9.15;;;;;;;-0.13;100.00;100662.66;5162442;28;20084;-72
2021/12/26 01:39:09;;;;;;;18.65;8.52;;;;;;;-0.10;100.00;100661.59;5179429;28;20100;-71
2021/12/26 01:41:42;;;;;;;20.10;8.45;;;;;;;-0.14;100.00;100663.59;5179945;28;20017;-72
2021/12/26 01:44:14;;;;;;;25.58;9.48;;;;;;;-0.09;100.00;100656.22;5179481;28;21410;-71
2021/12/26 01:46:47;;;;;;;21.45;8.50;;;;;;;-0.12;100.00;100660.84;5179768;28;20030;-71
2021/12/26 01:49:21;;;;;;;19.85;8.80;;;;;;;-0.11;100.00;100659.91;5162210;28;20117;-72
2021/12/26 01:51:54;;;;;;;19.25;8.15;;;;;;;-0.14;100.00;100658.34;5179624;28;20030;-72
2021/12/26 01:54:31;;;;;;;25.67;9.18;;;;;;;-0.08;100.00;100665.00;5161055;28;20018;-70
2021/12/26 01:57:03;;;;;;;21.27;9.23;;;;;;;-0.09;100.00;100656.22;5179928;28;20022;-72
2021/12/26 01:59:34;;;;;;;17.58;9.30;;;;;;;-0.05;100.00;100659.50;5179938;28;20037;-72
2021/12/26 02:02:05;;;;;;;22.00;9.75;;;;;;;-0.05;100.00;100656.84;5179804;28;20036;-71
2021/12/26 02:04:38;;;;;;;24.88;8.85;;;;;;;-0.06;100.00;100661.28;5180148;28;20049;-72
2021/12/26 02:07:11;;;;;;;23.67;8.90;;;;;;;-0.03;100.00;100661.09;5162603;28;20030;-71
2021/12/26 02:09:42;;;;;;;22.52;9.93;;;;;;;-0.03;100.00;100658.47;5179951;28;20375;-71
2021/12/26 02:12:12;;;;;;;23.17;9.95;;;;;;;-0.02;100.00;100661.94;5179966;28;20029;-70
2021/12/26 02:14:43;;;;;;;25.33;10.15;;;;;;;-0.02;100.00;100649.59;5178931;28;20029;-71
2021/12/26 02:17:28;;;;;;;20.50;9.63;;;;;;;-0.01;100.00;100653.91;5180373;28;20076;-74
2021/12/26 02:20:20;;;;;;;26.90;9.98;;;;;;;-0.03;100.00;100645.28;5158690;28;20081;-74
2021/12/26 02:22:57;;;;;;;28.05;10.85;;;;;;;-0.06;100.00;100639.34;5162205;28;20033;-74
2021/12/26 02:27:30;;;;;;;26.30;10.75;;;;;;;-0.06;100.00;100639.34;5162328;28;20021;-74
2021/12/26 02:28:32;;;;;;;23.83;10.52;;;;;;;-0.05;100.00;100639.25;5179582;28;20057;-75
2021/12/26 02:31:02;;;;;;;27.63;10.32;;;;;;;-0.04;100.00;100634.84;5179836;28;20060;-75
2021/12/26 02:33:34;;;;;;;23.48;9.93;;;;;;;-0.02;100.00;100641.69;5179913;28;20490;-74
2021/12/26 02:36:05;;;;;;;25.92;10.52;;;;;;;-0.01;100.00;100650.44;5179816;28;20026;-74
2021/12/26 02:38:36;;;;;;;31.80;11.10;;;;;;;-0.01;100.00;100647.78;5179898;28;20056;-74
2021/12/26 02:41:06;;;;;;;25.67;10.88;;;;;;;0.03;100.00;100649.28;5162526;28;20052;-74
2021/12/26 02:43:37;;;;;;;30.92;12.02;;;;;;;0.01;100.00;100642.44;5179569;28;20029;-75
2021/12/26 02:46:08;;;;;;;31.10;10.73;;;;;;;-0.01;100.00;100645.16;5179167;28;20160;-74
2021/12/26 02:48:39;;;;;;;27.33;10.48;;;;;;;0.01;100.00;100640.63;5180200;28;20033;-74
2021/12/26 02:51:11;;;;;;;28.58;10.93;;;;;;;0.01;100.00;100629.25;5162190;28;20025;-74
2021/12/26 02:53:42;;;;;;;23.23;10.68;;;;;;;0.02;100.00;100634.41;5179852;28;20156;-72
2021/12/26 02:56:13;;;;;;;28.02;11.43;;;;;;;0.02;100.00;100628.28;5179003;28;20022;-72
2021/12/26 02:58:44;;;;;;;29.13;11.73;;;;;;;0.03;100.00;100625.53;5179323;28;20037;-72
2021/12/26 03:01:19;;;;;;;27.95;11.65;;;;;;;0.02;100.00;100617.75;5180047;28;20030;-71
2021/12/26 03:03:50;;;;;;;29.60;11.32;;;;;;;0.03;100.00;100615.00;5179344;28;20022;-71
2021/12/26 03:09:10;;;;;;;25.48;11.27;;;;;;;0.03;100.00;100609.72;5183306;28;20026;-71
2021/12/26 03:11:44;;;;;;;32.13;13.63;;;;;;;0.06;100.00;100611.31;5182778;28;20037;-72
2021/12/26 03:14:16;;;;;;;36.05;12.27;;;;;;;0.09;100.00;100626.91;5182793;28;20579;-72
2021/12/26 03:16:48;;;;;;;35.67;14.45;;;;;;;0.09;100.00;100630.38;5165199;28;20053;-72
2021/12/26 03:19:19;;;;;;;31.75;13.15;;;;;;;0.10;100.00;100618.91;5182941;28;20040;-72
2021/12/26 03:21:51;;;;;;;41.65;14.75;;;;;;;0.09;100.00;100617.19;5177868;28;20030;-72
2021/12/26 03:24:21;;;;;;;41.33;15.93;;;;;;;0.12;100.00;100619.66;5165025;28;20108;-72
2021/12/26 03:27:12;;;;;;;45.67;15.48;;;;;;;0.17;100.00;100630.72;5182730;28;20152;-71
2021/12/26 03:29:43;;;;;;;49.60;16.38;;;;;;;0.15;100.00;100630.00;5182265;28;20187;-72
2021/12/26 03:32:14;;;;;;;45.38;15.70;;;;;;;0.14;100.00;100625.66;5182848;28;20025;-71
2021/12/26 03:34:47;;;;;;;46.05;15.25;;;;;;;0.14;100.00;100627.44;5182246;28;20018;-72
2021/12/26 03:37:18;;;;;;;41.35;15.93;;;;;;;0.13;100.00;100631.03;5165052;28;20109;-72
2021/12/26 03:39:48;;;;;;;34.33;14.00;;;;;;;0.14;100.00;100624.81;5182643;28;20029;-72
2021/12/26 03:42:21;;;;;;;34.00;13.52;;;;;;;0.12;100.00;100614.38;5182051;28;20077;-72
2021/12/26 03:44:52;;;;;;;40.67;14.40;;;;;;;0.15;100.00;100624.72;5182165;28;20113;-71
2021/12/26 03:47:22;;;;;;;35.83;14.02;;;;;;;0.16;100.00;100631.69;5182296;28;20530;-72
2021/12/26 03:49:53;;;;;;;41.03;14.13;;;;;;;0.18;100.00;100627.13;5163549;28;20029;-71
2021/12/26 03:52:25;;;;;;;37.42;15.60;;;;;;;0.17;100.00;100628.09;5182230;28;20025;-71
2021/12/26 03:54:55;;;;;;;35.38;13.55;;;;;;;0.19;100.00;100617.41;5181633;28;20030;-72
2021/12/26 03:57:26;;;;;;;36.88;13.70;;;;;;;0.20;100.00;100625.25;5182237;28;20036;-70
2021/12/26 03:59:56;;;;;;;34.78;14.23;;;;;;;0.20;100.00;100612.06;5182229;28;20068;-72
2021/12/26 04:02:27;;;;;;;37.72;14.80;;;;;;;0.17;100.00;100621.97;5164638;28;20381;-71
2021/12/26 04:04:57;;;;;;;36.45;13.98;;;;;;;0.17;100.00;100614.91;5181505;28;20037;-72
2021/12/26 04:07:28;;;;;;;35.30;13.02;;;;;;;0.16;100.00;100609.75;5164515;28;20462;-71
2021/12/26 04:09:59;;;;;;;36.38;12.63;;;;;;;0.14;100.00;100607.19;5182083;28;20048;-72
2021/12/26 04:12:35;;;;;;;34.47;12.50;;;;;;;0.13;100.00;100600.22;5164170;28;20022;-72
2021/12/26 04:15:09;;;;;;;35.95;12.88;;;;;;;0.13;100.00;100592.31;5181416;28;20054;-71
2021/12/26 04:17:39;;;;;;;35.95;13.23;;;;;;;0.16;100.00;100594.75;5180279;28;20486;-72
2021/12/26 04:20:11;;;;;;;32.72;14.75;;;;;;;0.16;100.00;100592.09;5182010;28;20071;-71
2021/12/26 04:22:42;;;;;;;36.25;13.00;;;;;;;0.16;100.00;100594.75;5179353;28;20394;-72
2021/12/26 04:25:13;;;;;;;31.27;12.80;;;;;;;0.17;100.00;100592.94;5181152;28;20018;-72
2021/12/26 04:27:43;;;;;;;38.55;13.95;;;;;;;0.19;100.00;100588.41;5181462;28;20117;-72
2021/12/26 04:30:15;;;;;;;38.50;13.45;;;;;;;0.13;100.00;100581.75;5163747;28;20785;-72
2021/12/26 04:32:47;;;;;;;35.53;13.55;;;;;;;0.13;100.00;100583.56;5164008;28;20336;-72
2021/12/26 04:35:18;;;;;;;32.05;12.65;;;;;;;0.17;100.00;100585.03;5180928;28;20025;-72
2021/12/26 04:37:49;;;;;;;29.42;11.57;;;;;;;0.13;100.00;100584.41;5181359;28;20030;-71
2021/12/26 04:40:20;;;;;;;30.48;12.52;;;;;;;0.13;100.00;100579.13;5180914;28;20083;-72
2021/12/26 04:42:51;;;;;;;33.75;13.18;;;;;;;0.15;100.00;100579.88;5181258;28;20061;-72
2021/12/26 04:45:22;;;;;;;33.53;12.65;;;;;;;0.15;100.00;100586.91;5181094;28;20017;-71
2021/12/26 04:47:53;;;;;;;37.75;12.32;;;;;;;0.17;100.00;100587.66;5181800;28;20030;-70
2021/12/26 04:50:24;;;;;;;29.25;12.70;;;;;;;0.16;100.00;100589.47;5181004;28;20022;-72
2021/12/26 04:52:56;;;;;;;28.42;12.88;;;;;;;0.22;100.00;100582.94;5180408;28;20308;-71
2021/12/26 04:55:27;;;;;;;30.08;12.68;;;;;;;0.24;100.00;100587.13;5180680;28;20022;-72
2021/12/26 04:57:58;;;;;;;35.47;13.52;;;;;;;0.22;100.00;100578.50;5180625;28;20076;-71
2021/12/26 05:00:31;;;;;;;34.67;13.20;;;;;;;0.22;100.00;100583.75;5181085;28;20467;-72
2021/12/26 05:03:04;;;;;;;31.42;12.80;;;;;;;0.18;100.00;100579.66;5181088;28;20032;-72
2021/12/26 05:05:35;;;;;;;28.83;12.20;;;;;;;0.15;100.00;100561.41;5180249;28;20040;-72
2021/12/26 05:08:06;;;;;;;36.03;14.07;;;;;;;0.14;100.00;100564.97;5180679;28;20030;-72
2021/12/26 05:10:37;;;;;;;33.20;12.80;;;;;;;0.18;100.00;100563.81;5180435;28;20033;-70
2021/12/26 05:13:09;;;;;;;28.90;11.90;;;;;;;0.22;100.00;100567.09;5180798;28;20088;-71
2021/12/26 05:15:39;;;;;;;29.73;12.88;;;;;;;0.22;100.00;100565.28;5179971;28;20033;-72
2021/12/26 05:18:10;;;;;;;30.67;12.90;;;;;;;0.21;100.00;100560.13;5180204;28;20462;-72
2021/12/26 05:20:40;;;;;;;26.73;12.75;;;;;;;0.20;100.00;100553.16;5174743;28;20446;-72
2021/12/26 05:23:11;;;;;;;25.42;12.90;;;;;;;0.17;100.00;100548.09;5159677;28;20109;-74
2021/12/26 05:25:42;;;;;;;30.23;13.30;;;;;;;0.20;100.00;100550.50;5176315;28;20382;-74
2021/12/26 05:28:12;;;;;;;31.00;14.13;;;;;;;0.24;100.00;100559.91;5180229;28;20032;-74
2021/12/26 05:30:43;;;;;;;32.95;13.82;;;;;;;0.23;100.00;100553.78;5162951;28;20038;-74
2021/12/26 05:33:13;;;;;;;31.10;13.70;;;;;;;0.22;100.00;100546.81;5180602;28;20030;-71
2021/12/26 05:35:44;;;;;;;27.75;13.23;;;;;;;0.22;100.00;100551.25;5180105;28;20109;-72
2021/12/26 05:38:14;;;;;;;34.30;13.25;;;;;;;0.24;100.00;100544.91;5155789;28;20088;-70
2021/12/26 05:40:45;;;;;;;29.58;13.82;;;;;;;0.23;100.00;100537.94;5179907;28;20026;-71
2021/12/26 05:43:15;;;;;;;31.73;12.95;;;;;;;0.25;100.00;100544.00;5162461;28;20254;-72
2021/12/26 05:45:46;;;;;;;31.95;13.90;;;;;;;0.28;100.00;100540.28;5179842;28;20049;-71
2021/12/26 05:48:17;;;;;;;28.50;13.15;;;;;;;0.29;100.00;100546.38;5180170;28;20030;-72
2021/12/26 05:50:47;;;;;;;28.33;13.38;;;;;;;0.28;100.00;100542.91;5180115;28;20022;-72
2021/12/26 05:53:19;;;;;;;33.53;13.30;;;;;;;0.30;100.00;100548.06;5170678;28;20036;-72
2021/12/26 05:55:50;;;;;;;39.80;13.85;;;;;;;0.31;100.00;100547.16;5177227;28;20018;-72
2021/12/26 05:58:21;;;;;;;32.80;13.77;;;;;;;0.29;100.00;100541.94;5180071;28;20061;-72
2021/12/26 06:00:51;;;;;;;33.67;14.88;;;;;;;0.32;100.00;100544.38;5179956;28;20044;-72
2021/12/26 06:03:22;;;;;;;31.73;14.23;;;;;;;0.34;100.00;100542.47;5179937;28;20436;-71
2021/12/26 06:05:52;;;;;;;35.78;15.15;;;;;;;0.34;100.00;100539.00;5179073;28;20040;-72
2021/12/26 06:08:23;;;;;;;33.13;14.18;;;;;;;0.37;100.00;100541.44;5162381;28;20026;-72
2021/12/26 06:10:53;;;;;;;35.42;16.08;;;;;;;0.37;100.00;100538.78;5180063;28;20080;-71
2021/12/26 06:13:24;;;;;;;37.80;15.00;;;;;;;0.36;100.00;100543.22;5180016;28;20018;-72
2021/12/26 06:15:54;;;;;;;29.58;14.52;;;;;;;0.34;100.00;100534.56;5179443;28;20037;-71
2021/12/26 06:18:25;;;;;;;28.23;13.43;;;;;;;0.35;100.00;100543.31;5179486;28;20044;-72
2021/12/26 06:20:55;;;;;;;35.22;14.95;;;;;;;0.35;100.00;100541.53;5180334;28;20026;-71
2021/12/26 06:23:26;;;;;;;34.20;15.25;;;;;;;0.32;100.00;100538.28;5179828;28;20033;-72
2021/12/26 06:25:56;;;;;;;28.83;13.32;;;;;;;0.34;100.00;100539.00;5175630;28;20071;-72
2021/12/26 06:28:27;;;;;;;29.23;14.05;;;;;;;0.34;100.00;100539.84;5179853;28;20366;-72
2021/12/26 06:30:57;;;;;;;31.17;14.77;;;;;;;0.37;100.00;100544.06;5179798;28;20509;-71
2021/12/26 06:33:28;;;;;;;31.65;13.88;;;;;;;0.35;100.00;100540.69;5179871;28;20062;-71
2021/12/26 06:35:58;;;;;;;27.20;14.18;;;;;;;0.34;100.00;100534.56;5179361;28;20029;-70
2021/12/26 06:38:29;;;;;;;29.25;13.57;;;;;;;0.37;100.00;100531.72;5179616;28;20057;-71
2021/12/26 06:41:00;;;;;;;30.38;13.80;;;;;;;0.42;100.00;100532.22;5182124;28;20069;-72
2021/12/26 06:43:31;;;;;;;35.80;15.38;;;;;;;0.38;100.00;100530.75;5183124;28;20041;-71
2021/12/26 06:46:02;;;;;;;28.92;13.68;;;;;;;0.42;100.00;100529.59;5183400;28;20034;-72
2021/12/26 06:48:33;;;;;;;30.65;13.32;;;;;;;0.41;100.00;100524.44;5165950;28;20033;-73
2021/12/26 06:51:05;;;;;;;30.17;14.40;;;;;;;0.44;100.00;100532.09;5166035;28;20486;-70
2021/12/26 06:53:35;;;;;;;32.28;15.55;;;;;;;0.41;100.00;100527.06;5176483;28;20014;-71
2021/12/26 06:56:06;;;;;;;30.83;13.80;;;;;;;0.41;100.00;100530.56;5182844;28;20038;-71
2021/12/26 06:58:36;;;;;;;28.45;12.32;;;;;;;0.43;100.00;100530.44;5183635;28;20035;-71
2021/12/26 07:01:07;;;;;;;32.53;13.85;;;;;;;0.42;100.00;100528.75;5183262;28;20072;-71
2021/12/26 07:03:38;;;;;;;31.48;13.90;;;;;;;0.45;100.00;100529.38;5183029;28;20026;-71
2021/12/26 07:06:08;;;;;;;26.23;12.90;;;;;;;0.45;100.00;100520.59;5182291;28;20056;-70
2021/12/26 07:08:38;;;;;;;28.73;13.20;;;;;;;0.46;100.00;100530.22;5182746;28;20108;-72
2021/12/26 07:11:09;;;;;;;30.15;13.27;;;;;;;0.47;100.00;100529.25;5183194;28;20037;-72
2021/12/26 07:13:39;;;;;;;30.83;14.25;;;;;;;0.47;100.00;100531.91;5183031;28;20025;-72
2021/12/26 07:16:10;;;;;;;27.92;13.52;;;;;;;0.48;100.00;100533.59;5182329;28;20168;-72
2021/12/26 07:18:40;;;;;;;29.90;14.18;;;;;;;0.48;100.00;100530.94;5182430;28;20030;-72
2021/12/26 07:21:11;;;;;;;31.95;14.23;;;;;;;0.48;100.00;100529.16;5182477;28;20502;-70
2021/12/26 07:23:41;;;;;;;33.90;14.80;;;;;;;0.48;100.00;100528.31;5182829;28;20026;-72
2021/12/26 07:26:12;;;;;;;30.92;14.38;;;;;;;0.52;100.00;100538.53;5177481;28;20029;-73
2021/12/26 07:28:42;;;;;;;30.90;14.80;;;;;;;0.51;100.00;100536.84;5182365;28;20032;-73
2021/12/26 07:31:13;;;;;;;32.13;14.55;;;;;;;0.47;100.00;100538.03;5182683;28;20114;-73
2021/12/26 07:33:43;;;;;;;32.78;15.00;;;;;;;0.52;100.00;100543.81;5165102;28;20037;-73
2021/12/26 07:36:14;;;;;;;35.67;15.60;;;;;;;0.51;100.00;100542.13;5182288;28;20083;-73
2021/12/26 07:38:45;;;;;;;35.13;15.02;;;;;;;0.51;100.00;100543.94;5182765;28;20097;-73
2021/12/26 07:41:15;;;;;;;32.35;13.98;;;;;;;0.56;100.00;100541.81;5182604;28;20018;-72
2021/12/26 07:43:45;;;;;;;34.95;14.88;;;;;;;0.54;100.00;100541.06;5182062;28;20022;-73
2021/12/26 07:46:16;;;;;;;34.50;15.23;;;;;;;0.60;100.00;100543.25;5182022;28;20021;-73
2021/12/26 07:48:47;;;;;;;29.15;14.48;;;;;;;0.61;100.00;100544.97;5182810;28;20053;-73
2021/12/26 07:51:19;;;;;;;38.42;15.60;;;;;;;0.61;100.00;100538.84;5180760;28;20034;-72
2021/12/26 07:53:51;;;;;;;30.63;13.95;;;;;;;0.63;100.00;100535.13;5174417;28;20052;-72
2021/12/26 07:56:21;;;;;;;32.53;15.07;;;;;;;0.61;100.00;100536.22;5157459;28;20034;-72
2021/12/26 07:58:52;;;;;;;30.08;15.00;;;;;;;0.65;100.00;100535.00;5179467;28;20037;-72
2021/12/26 08:01:23;;;;;;;31.40;14.90;;;;;;;0.64;100.00;100531.53;5179980;28;20034;-73
2021/12/26 08:03:54;;;;;;;33.67;14.55;;;;;;;0.67;100.00;100538.41;5179949;28;20026;-72
2021/12/26 08:06:24;;;;;;;32.17;15.68;;;;;;;0.70;100.00;100540.81;5179328;28;20022;-72
2021/12/26 08:08:55;;;;;;;28.10;14.77;;;;;;;0.71;100.00;100534.59;5179203;28;20473;-72
2021/12/26 08:11:25;;;;;;;34.20;14.43;;;;;;;0.71;100.00;100543.34;5180124;28;20127;-71
2021/12/26 08:13:56;;;;;;;30.45;14.98;;;;;;;0.71;100.00;100530.16;5180091;28;20442;-72
2021/12/26 08:16:27;;;;;;;35.08;15.05;;;;;;;0.73;100.00;100536.16;5179434;28;20510;-72
2021/12/26 08:18:57;;;;;;;32.97;14.98;;;;;;;0.71;100.00;100532.78;5179993;28;20045;-72
2021/12/26 08:21:28;;;;;;;36.15;16.35;;;;;;;0.73;100.00;100524.75;5184207;28;20030;-73
2021/12/26 08:23:59;;;;;;;32.88;14.90;;;;;;;0.73;100.00;100530.88;5179516;28;20233;-73
2021/12/26 08:26:32;;;;;;;35.72;15.43;;;;;;;0.76;100.00;100532.47;5170836;28;20053;-73
2021/12/26 08:29:03;;;;;;;32.65;16.85;;;;;;;0.82;100.00;100539.94;5179117;28;20033;-73
2021/12/26 08:31:33;;;;;;;39.08;17.40;;;;;;;0.85;100.00;100538.84;5179361;28;20026;-72
2021/12/26 08:34:04;;;;;;;40.05;18.13;;;;;;;0.87;100.00;100536.97;5179583;28;20072;-73
2021/12/26 08:36:35;;;;;;;36.70;16.70;;;;;;;0.89;100.00;100537.69;5183924;28;20013;-72
2021/12/26 08:39:06;;;;;;;38.80;17.17;;;;;;;0.95;100.00;100537.22;5181887;28;20116;-72
2021/12/26 08:41:37;;;;;;;36.60;16.60;;;;;;;1.03;100.00;100542.81;5187464;28;20053;-73
2021/12/26 08:44:07;;;;;;;37.72;16.95;;;;;;;1.07;100.00;100538.16;5178150;28;20030;-72
2021/12/26 08:46:38;;;;;;;36.25;16.60;;;;;;;1.11;100.00;100536.97;5179388;28;20100;-73
2021/12/26 08:49:09;;;;;;;31.80;15.80;;;;;;;1.16;100.00;100533.03;5178731;28;20319;-73
2021/12/26 08:51:40;;;;;;;35.85;17.40;;;;;;;1.17;100.00;100542.63;5179068;28;20137;-73
2021/12/26 08:54:11;;;;;;;35.78;16.73;;;;;;;1.21;100.00;100533.53;5178172;28;20020;-72
2021/12/26 08:56:42;;;;;;;39.47;17.73;;;;;;;1.26;100.00;100534.03;5178886;28;20025;-72
2021/12/26 08:59:13;;;;;;;36.97;17.13;;;;;;;1.31;100.00;100535.50;5161490;28;20061;-73
2021/12/26 09:01:45;;;;;;;38.42;17.05;;;;;;;1.32;100.00;100524.78;5161540;28;20033;-71
2021/12/26 09:04:16;;;;;;;38.08;17.15;;;;;;;1.35;100.00;100534.28;5178087;28;20041;-72
2021/12/26 09:06:46;;;;;;;39.75;18.52;;;;;;;1.36;100.00;100539.47;5178665;28;20520;-72
2021/12/26 09:09:17;;;;;;;38.45;17.23;;;;;;;1.41;100.00;100537.31;5178333;28;20394;-73
2021/12/26 09:11:48;;;;;;;33.28;16.50;;;;;;;1.48;100.00;100537.69;5179324;28;20025;-72
2021/12/26 09:14:18;;;;;;;38.58;17.77;;;;;;;1.57;100.00;100537.00;5182547;28;20377;-72
2021/12/26 09:16:49;;;;;;;33.05;16.58;;;;;;;1.61;100.00;100540.25;5182900;28;20663;-72
2021/12/26 09:19:20;;;;;;;38.72;17.48;;;;;;;1.63;100.00;100536.53;5178156;28;20025;-72
2021/12/26 09:21:50;;;;;;;39.38;18.45;;;;;;;1.70;100.00;100534.25;5178675;28;20038;-73
2021/12/26 09:24:21;;;;;;;40.15;18.30;;;;;;;1.77;100.00;100538.13;5178500;28;20013;-71
2021/12/26 09:26:52;;;;;;;39.45;17.70;;;;;;;1.85;100.00;100532.25;5169920;28;20556;-73
2021/12/26 09:29:23;;;;;;;43.53;17.75;;;;;;;1.91;100.00;100534.41;5174140;28;20491;-71
2021/12/26 09:31:54;;;;;;;39.25;17.17;;;;;;;2.00;100.00;100539.00;5178718;28;20106;-72
2021/12/26 09:34:24;;;;;;;36.25;17.50;;;;;;;2.05;100.00;100535.03;5177238;28;20040;-72
2021/12/26 09:36:56;;;;;;;35.50;16.92;;;;;;;2.11;100.00;100532.88;5179004;28;20062;-73
2021/12/26 09:39:27;;;;;;;40.80;18.10;;;;;;;2.18;100.00;100539.38;5178209;28;20026;-73
2021/12/26 09:41:58;;;;;;;36.45;16.88;;;;;;;2.31;100.00;100540.13;5178799;28;20386;-71
2021/12/26 09:44:28;;;;;;;39.17;18.23;;;;;;;2.41;100.00;100541.09;5177659;28;20105;-72
2021/12/26 09:46:59;;;;;;;39.58;17.70;;;;;;;2.47;100.00;100537.09;5178062;28;20034;-73
2021/12/26 09:49:29;;;;;;;35.45;16.38;;;;;;;2.55;100.00;100542.59;5177969;28;20088;-72
2021/12/26 09:52:00;;;;;;;35.33;16.25;;;;;;;2.57;100.00;100536.25;5178279;28;20100;-72
2021/12/26 09:54:31;;;;;;;33.88;16.65;;;;;;;2.50;100.00;100531.53;5177818;28;20084;-72
2021/12/26 09:57:02;;;;;;;34.58;16.67;;;;;;;2.61;100.00;100531.56;5177687;28;20030;-72
2021/12/26 09:59:32;;;;;;;32.42;16.10;;;;;;;2.65;100.00;100524.19;5178274;28;20033;-72
2021/12/26 10:02:21;;;;;;;33.97;16.67;;;;;;;2.72;100.00;100512.97;5177784;28;20045;-72
2021/12/26 10:04:52;;;;;;;31.35;16.23;;;;;;;2.76;100.00;100517.06;5177677;28;20022;-72
2021/12/26 10:07:26;;;;;;;34.83;16.42;;;;;;;2.85;100.00;100513.66;5178046;28;20391;-73
2021/12/26 10:09:56;;;;;;;35.72;16.88;;;;;;;2.97;100.00;100514.47;5159963;28;20380;-73
2021/12/26 10:12:26;;;;;;;35.38;16.42;;;;;;;3.01;100.00;100510.63;5178421;28;20032;-72
2021/12/26 10:14:57;;;;;;;39.08;17.02;;;;;;;3.15;100.00;100505.97;5178654;28;20428;-73
2021/12/26 10:17:27;;;;;;;34.85;16.20;;;;;;;3.30;100.00;100504.69;5182393;28;20083;-72
2021/12/26 10:20:14;;;;;;;31.42;17.20;;;;;;;3.37;100.00;100503.22;5181276;28;20267;-73
2021/12/26 10:22:44;;;;;;;34.45;16.55;;;;;;;3.50;100.00;100514.47;5164590;28;20026;-72
2021/12/26 10:25:15;;;;;;;31.55;16.35;;;;;;;3.58;100.00;100503.22;5181627;28;20032;-73
2021/12/26 10:27:48;;;;;;;33.85;16.23;;;;;;;3.50;100.00;100514.47;5163184;28;20030;-73
2021/12/26 10:30:22;;;;;;;32.38;15.35;;;;;;;3.48;100.00;100504.97;5163926;28;20270;-72
2021/12/26 10:32:59;;;;;;;37.78;16.15;;;;;;;3.34;100.00;100496.34;5181811;28;20032;-73
2021/12/26 10:35:30;;;;;;;27.83;14.30;;;;;;;3.40;100.00;100499.47;5170708;28;20045;-73
2021/12/26 10:38:00;;;;;;;33.47;16.02;;;;;;;3.40;100.00;100486.22;5188169;28;20433;-72
2021/12/26 10:40:31;;;;;;;30.80;15.18;;;;;;;3.44;100.00;100485.81;5181664;28;20025;-72
2021/12/26 10:43:02;;;;;;;30.10;16.27;;;;;;;3.47;100.00;100479.44;5181247;28;20398;-73
2021/12/26 10:45:34;;;;;;;30.65;15.60;;;;;;;3.47;100.00;100480.28;5181540;28;20018;-72
2021/12/26 10:48:08;;;;;;;28.85;14.25;;;;;;;3.45;100.00;100478.72;5181857;28;20018;-72
2021/12/26 10:50:40;;;;;;;31.52;15.13;;;;;;;3.48;100.00;100481.13;5163975;28;20101;-72
2021/12/26 10:53:14;;;;;;;32.67;14.80;;;;;;;3.47;100.00;100485.56;5181677;28;20018;-72
2021/12/26 10:55:51;;;;;;;35.50;16.90;;;;;;;3.62;100.00;100478.13;5171214;28;20025;-72
2021/12/26 10:58:24;;;;;;;30.13;14.80;;;;;;;3.79;100.00;100472.22;5181726;28;20545;-74
2021/12/26 11:00:56;;;;;;;30.85;15.35;;;;;;;4.01;100.00;100473.84;5181141;28;20555;-72
2021/12/26 11:03:30;;;;;;;31.45;15.45;;;;;;;4.17;100.00;100473.38;5164273;28;20030;-72
2021/12/26 11:06:06;;;;;;;32.95;15.60;;;;;;;4.20;100.00;100472.25;5191148;28;20424;-72
2021/12/26 11:08:38;;;;;;;;;;;;;;;4.29;100.00;100480.25;5181475;28;20033;-73
2021/12/26 11:11:14;;;;;;;28.02;14.30;;;;;;;4.32;100.00;100464.06;5181249;28;20241;-71
2021/12/26 11:13:45;;;;;;;29.13;14.35;;;;;;;4.46;100.00;100472.59;5181738;28;20040;-72
2021/12/26 11:16:16;;;;;;;28.35;14.93;;;;;;;4.55;100.00;100471.78;5180190;28;20025;-72
2021/12/26 11:18:53;;;;;;;26.00;14.05;;;;;;;4.53;100.00;100465.78;5180976;28;20478;-72
2021/12/26 11:21:24;;;;;;;27.90;13.63;;;;;;;4.46;100.00;100462.81;5180920;28;20022;-71
2021/12/26 11:23:55;;;;;;;29.48;14.23;;;;;;;4.49;100.00;100459.06;5181439;28;20029;-72
2021/12/26 11:26:25;;;;;;;28.45;13.95;;;;;;;4.37;100.00;100451.22;5180766;28;20026;-71
2021/12/26 11:28:56;;;;;;;33.90;16.13;;;;;;;4.48;100.00;100460.88;5161477;28;20034;-71
2021/12/26 11:31:29;;;;;;;35.63;15.90;;;;;;;4.55;100.00;100458.50;5192337;28;20502;-72